Balsa 91 — 3FTK7 — position and weather

sailwx.info

Track history (hours):
 
Tides and Currents Weather Stations Pressure Air Temp Water Temp Dewpoint Dewpoint Depression Visibility Wind Speed Wind Dir Waves Ship Positions

Balsa 91

Last reported at 2018-Jan-20 23:33 UTC. Time now 2018-Feb-22 22:59 UTC.
Position N 36°51' W 075°50'.
Warning: this ship's position is 32 days out of date.

Length 106 m; draft 4.4 m.

Type: Cargo ship. MMSI: 371895000.

Date/timePositionNaut miles runAvg speedWind from/ knotsBaromVisibWave heightAir tempDewpointWater temp
2018-Jan-20 23:33N 36°51' W 075°50'110.0
2018-Jan-20 23:26N 36°51' W 075°51'410.0
2018-Jan-20 23:01N 36°54' W 075°55'510.6
2018-Jan-20 22:30N 36°57' W 076°01'612.1
2018-Jan-20 22:00N 36°59' W 076°08'611.9
2018-Jan-20 21:31N 37°00' W 076°15'510.6
2018-Jan-20 21:01N 36°57' W 076°20'5 9.3
2018-Jan-20 20:30N 36°52' W 076°20'3 6.4
2018-Jan-20 20:01N 36°49' W 076°17'1 2.5
2018-Jan-20 19:30N 36°48' W 076°17'0 0.0
2018-Jan-20 19:00N 36°48' W 076°17'0 0.0
2018-Jan-20 18:30N 36°48' W 076°17'0 0.0
2018-Jan-20 18:00N 36°48' W 076°17'0 0.0
2018-Jan-20 17:30N 36°48' W 076°17'0 0.0
2018-Jan-20 17:00N 36°48' W 076°17'0 0.0
2018-Jan-20 16:27N 36°48' W 076°17'0 0.0
2018-Jan-20 16:00N 36°48' W 076°17'0 0.0
2018-Jan-20 15:30N 36°48' W 076°17'0 0.0
2018-Jan-20 15:00N 36°48' W 076°17'0 0.0
2018-Jan-20 14:30N 36°48' W 076°17'0 0.0
2018-Jan-20 14:00N 36°48' W 076°17'0 0.0
2018-Jan-20 13:30N 36°48' W 076°17'0 0.0
2018-Jan-20 13:00N 36°48' W 076°17'0 0.0
2018-Jan-20 12:30N 36°48' W 076°17'0 0.0
2018-Jan-20 12:00N 36°48' W 076°17'0 0.0
2018-Jan-20 11:30N 36°48' W 076°17'0 0.0
2018-Jan-20 11:00N 36°48' W 076°17'0 0.0
2018-Jan-20 10:30N 36°48' W 076°17'0 0.0
2018-Jan-20 10:00N 36°48' W 076°17'0 0.0
2018-Jan-20 09:30N 36°48' W 076°17'0 0.0
2018-Jan-20 09:00N 36°48' W 076°17'0 0.0
2018-Jan-20 08:30N 36°48' W 076°17'0 0.0
2018-Jan-20 08:00N 36°48' W 076°17'0 0.0
2018-Jan-20 07:30N 36°48' W 076°17'0 0.0
2018-Jan-20 07:00N 36°48' W 076°17'0 0.0
2018-Jan-20 06:30N 36°48' W 076°17'0 0.0
2018-Jan-20 06:00N 36°48' W 076°17'0 0.0
2018-Jan-20 05:30N 36°48' W 076°17'0 0.0
2018-Jan-20 05:00N 36°48' W 076°17'0 0.0
2018-Jan-20 04:30N 36°48' W 076°17'0 0.0
2018-Jan-20 04:00N 36°48' W 076°17'0 0.0
2018-Jan-20 03:30N 36°48' W 076°17'0 0.0
2018-Jan-20 03:00N 36°48' W 076°17'0 0.0
2018-Jan-20 02:30N 36°48' W 076°17'0 0.0
2018-Jan-20 02:00N 36°48' W 076°17'0 0.0
2018-Jan-20 01:30N 36°48' W 076°17'0 0.0
2018-Jan-20 01:00N 36°48' W 076°17'0 0.0
2018-Jan-20 00:30N 36°48' W 076°17'0 0.0
2018-Jan-20 00:00N 36°48' W 076°17'0 0.0
2018-Jan-19 23:30N 36°48' W 076°17'0 0.0
2018-Jan-19 23:00N 36°48' W 076°17'2 3.2
2018-Jan-19 22:31N 36°50' W 076°18'3 6.0
2018-Jan-19 22:00N 36°52' W 076°20'5 9.7
2018-Jan-19 21:30N 36°57' W 076°20'2 0.4
2018-Jan-19 17:12N 36°57' W 076°22'0 0.0
2018-Jan-19 16:40N 36°57' W 076°22'0 0.0
2018-Jan-19 16:30N 36°57' W 076°22'0 0.0
2018-Jan-19 16:00N 36°57' W 076°22'0 0.1
2018-Jan-19 15:30N 36°57' W 076°22'5 8.8
2018-Jan-19 14:57N 37°00' W 076°18'712.0
2018-Jan-19 14:25N 36°59' W 076°10'512.8
2018-Jan-19 13:59N 36°58' W 076°03'510.6
2018-Jan-19 13:30N 36°56' W 075°57'4 9.0
2018-Jan-19 13:00N 36°53' W 075°53'5 9.3
2018-Jan-19 12:30N 36°51' W 075°48'  
Track history (hours):
 
Tides and Currents Weather Stations Pressure Air Temp Water Temp Dewpoint Dewpoint Depression Visibility Wind Speed Wind Dir Waves Ship Positions

Balsa 91

Last reported at 2018-Jan-20 23:33 UTC. Time now 2018-Feb-22 22:59 UTC.
Position N 36°51' W 075°50'.
Warning: this ship's position is 32 days out of date.

Length 106 m; draft 4.4 m.

Type: Cargo ship. MMSI: 371895000.

Date/timePositionNaut miles runAvg speedWind from/ knotsBaromVisibWave heightAir tempDewpointWater temp
2018-Jan-20 23:33N 36°51' W 075°50'110.0
2018-Jan-20 23:26N 36°51' W 075°51'410.0
2018-Jan-20 23:01N 36°54' W 075°55'510.6
2018-Jan-20 22:30N 36°57' W 076°01'612.1
2018-Jan-20 22:00N 36°59' W 076°08'611.9
2018-Jan-20 21:31N 37°00' W 076°15'510.6
2018-Jan-20 21:01N 36°57' W 076°20'5 9.3
2018-Jan-20 20:30N 36°52' W 076°20'3 6.4
2018-Jan-20 20:01N 36°49' W 076°17'1 2.5
2018-Jan-20 19:30N 36°48' W 076°17'0 0.0
2018-Jan-20 19:00N 36°48' W 076°17'0 0.0
2018-Jan-20 18:30N 36°48' W 076°17'0 0.0
2018-Jan-20 18:00N 36°48' W 076°17'0 0.0
2018-Jan-20 17:30N 36°48' W 076°17'0 0.0
2018-Jan-20 17:00N 36°48' W 076°17'0 0.0
2018-Jan-20 16:27N 36°48' W 076°17'0 0.0
2018-Jan-20 16:00N 36°48' W 076°17'0 0.0
2018-Jan-20 15:30N 36°48' W 076°17'0 0.0
2018-Jan-20 15:00N 36°48' W 076°17'0 0.0
2018-Jan-20 14:30N 36°48' W 076°17'0 0.0
2018-Jan-20 14:00N 36°48' W 076°17'0 0.0
2018-Jan-20 13:30N 36°48' W 076°17'0 0.0
2018-Jan-20 13:00N 36°48' W 076°17'0 0.0
2018-Jan-20 12:30N 36°48' W 076°17'0 0.0
2018-Jan-20 12:00N 36°48' W 076°17'0 0.0
2018-Jan-20 11:30N 36°48' W 076°17'0 0.0
2018-Jan-20 11:00N 36°48' W 076°17'0 0.0
2018-Jan-20 10:30N 36°48' W 076°17'0 0.0
2018-Jan-20 10:00N 36°48' W 076°17'0 0.0
2018-Jan-20 09:30N 36°48' W 076°17'0 0.0
2018-Jan-20 09:00N 36°48' W 076°17'0 0.0
2018-Jan-20 08:30N 36°48' W 076°17'0 0.0
2018-Jan-20 08:00N 36°48' W 076°17'0 0.0
2018-Jan-20 07:30N 36°48' W 076°17'0 0.0
2018-Jan-20 07:00N 36°48' W 076°17'0 0.0
2018-Jan-20 06:30N 36°48' W 076°17'0 0.0
2018-Jan-20 06:00N 36°48' W 076°17'0 0.0
2018-Jan-20 05:30N 36°48' W 076°17'0 0.0
2018-Jan-20 05:00N 36°48' W 076°17'0 0.0
2018-Jan-20 04:30N 36°48' W 076°17'0 0.0
2018-Jan-20 04:00N 36°48' W 076°17'0 0.0
2018-Jan-20 03:30N 36°48' W 076°17'0 0.0
2018-Jan-20 03:00N 36°48' W 076°17'0 0.0
2018-Jan-20 02:30N 36°48' W 076°17'0 0.0
2018-Jan-20 02:00N 36°48' W 076°17'0 0.0
2018-Jan-20 01:30N 36°48' W 076°17'0 0.0
2018-Jan-20 01:00N 36°48' W 076°17'0 0.0
2018-Jan-20 00:30N 36°48' W 076°17'0 0.0
2018-Jan-20 00:00N 36°48' W 076°17'0 0.0
2018-Jan-19 23:30N 36°48' W 076°17'0 0.0
2018-Jan-19 23:00N 36°48' W 076°17'2 3.2
2018-Jan-19 22:31N 36°50' W 076°18'3 6.0
2018-Jan-19 22:00N 36°52' W 076°20'5 9.7
2018-Jan-19 21:30N 36°57' W 076°20'2 0.4
2018-Jan-19 17:12N 36°57' W 076°22'0 0.0
2018-Jan-19 16:40N 36°57' W 076°22'0 0.0
2018-Jan-19 16:30N 36°57' W 076°22'0 0.0
2018-Jan-19 16:00N 36°57' W 076°22'0 0.1
2018-Jan-19 15:30N 36°57' W 076°22'5 8.8
2018-Jan-19 14:57N 37°00' W 076°18'712.0
2018-Jan-19 14:25N 36°59' W 076°10'512.8
2018-Jan-19 13:59N 36°58' W 076°03'510.6
2018-Jan-19 13:30N 36°56' W 075°57'4 9.0
2018-Jan-19 13:00N 36°53' W 075°53'5 9.3
2018-Jan-19 12:30N 36°51' W 075°48'  

Dump ship's entire track history